createdAt,value
2023-03-08T00:02:18.128Z,7.50
2023-03-08T00:04:47.681Z,7.80
2023-03-08T00:07:17.778Z,7.35
2023-03-08T00:09:47.425Z,8.13
2023-03-08T00:12:19.245Z,7.32
2023-03-08T00:14:48.758Z,8.30
2023-03-08T00:17:20.963Z,8.15
2023-03-08T00:19:50.461Z,8.27
2023-03-08T00:22:19.964Z,9.95
2023-03-08T00:24:51.509Z,11.35
2023-03-08T00:27:20.992Z,10.25
2023-03-08T00:29:50.503Z,10.38
2023-03-08T00:32:22.703Z,10.57
2023-03-08T00:34:53.685Z,11.27
2023-03-08T00:37:23.413Z,10.32
2023-03-08T00:39:53.857Z,10.30
2023-03-08T00:42:23.520Z,10.50
2023-03-08T00:44:53.141Z,10.10
2023-03-08T00:47:28.096Z,10.55
2023-03-08T00:49:57.533Z,11.55
2023-03-08T00:52:27.129Z,11.05
2023-03-08T00:54:56.577Z,10.65
2023-03-08T00:57:26.111Z,8.55
2023-03-08T00:59:55.628Z,8.90
2023-03-08T01:02:27.980Z,8.68
2023-03-08T01:04:57.664Z,8.55
2023-03-08T01:07:28.546Z,9.05
2023-03-08T01:12:28.563Z,10.30
2023-03-08T01:14:58.075Z,10.30
2023-03-08T01:17:30.283Z,9.18
2023-03-08T01:19:59.946Z,9.95
2023-03-08T01:22:29.625Z,10.20
2023-03-08T01:24:59.365Z,10.40
2023-03-08T01:27:28.822Z,10.70
2023-03-08T01:29:58.307Z,11.93
2023-03-08T01:32:30.686Z,11.80
2023-03-08T01:35:04.549Z,11.10
2023-03-08T01:37:34.348Z,10.38
2023-03-08T01:40:05.124Z,10.05
2023-03-08T01:42:34.738Z,11.85
2023-03-08T01:45:06.147Z,10.15
2023-03-08T01:47:38.945Z,9.95
2023-03-08T01:50:10.880Z,9.80
2023-03-08T01:52:41.517Z,11.13
2023-03-08T01:55:12.588Z,10.65
2023-03-08T02:00:14.339Z,11.55
2023-03-08T02:02:47.700Z,10.85
2023-03-08T02:05:17.239Z,12.75
2023-03-08T02:07:46.736Z,11.98
2023-03-08T02:10:16.356Z,11.70
2023-03-08T02:12:45.849Z,13.10
2023-03-08T02:15:16.450Z,12.00
2023-03-08T02:17:48.496Z,13.05
2023-03-08T02:20:20.006Z,12.18
2023-03-08T02:22:53.216Z,13.20
2023-03-08T02:25:23.882Z,12.88
2023-03-08T02:27:53.686Z,12.95
2023-03-08T02:30:26.482Z,13.38
2023-03-08T02:32:55.993Z,12.95
2023-03-08T02:35:25.515Z,12.77
2023-03-08T02:37:57.578Z,12.35
2023-03-08T02:40:27.099Z,11.40
2023-03-08T02:42:57.182Z,11.05
2023-03-08T02:45:26.685Z,11.40
2023-03-08T02:47:56.289Z,10.85
2023-03-08T02:50:25.772Z,10.93
2023-03-08T02:52:57.852Z,11.38
2023-03-08T02:55:27.365Z,10.10
2023-03-08T02:57:56.964Z,9.75
2023-03-08T03:00:26.518Z,10.27
2023-03-08T03:02:56.008Z,10.88
2023-03-08T03:05:25.511Z,10.38
2023-03-08T03:07:58.718Z,9.20
2023-03-08T03:10:28.612Z,9.23
2023-03-08T03:12:58.079Z,9.23
2023-03-08T03:15:27.656Z,9.13
2023-03-08T03:17:57.142Z,9.10
2023-03-08T03:20:26.605Z,8.48
2023-03-08T03:22:58.658Z,10.07
2023-03-08T03:25:28.326Z,8.90
2023-03-08T03:27:57.820Z,10.45
2023-03-08T03:30:27.828Z,10.82
2023-03-08T03:32:57.303Z,10.55
2023-03-08T03:35:26.822Z,9.27
2023-03-08T03:37:58.991Z,10.77
2023-03-08T03:40:28.599Z,12.07
2023-03-08T03:42:58.195Z,13.90
2023-03-08T03:45:27.665Z,13.40
2023-03-08T03:47:57.151Z,11.93
2023-03-08T03:50:26.706Z,10.95
2023-03-08T03:52:58.726Z,10.75
2023-03-08T03:55:28.207Z,9.60
2023-03-08T03:57:57.787Z,11.50
2023-03-08T04:00:27.508Z,11.23
2023-03-08T04:02:57.017Z,11.35
2023-03-08T04:05:26.508Z,13.35
2023-03-08T04:07:55.961Z,14.50
2023-03-08T04:10:28.152Z,14.38
2023-03-08T04:12:57.617Z,15.38
2023-03-08T04:15:27.136Z,16.85
2023-03-08T04:17:56.584Z,14.82
2023-03-08T04:20:26.215Z,13.98
2023-03-08T04:22:55.839Z,14.32
2023-03-08T04:25:27.938Z,14.90
2023-03-08T04:27:57.432Z,15.48
2023-03-08T04:30:26.913Z,14.85
2023-03-08T04:32:56.379Z,13.95
2023-03-08T04:35:25.949Z,16.00
2023-03-08T04:37:55.486Z,14.50
2023-03-08T04:40:25.017Z,14.43
2023-03-08T04:42:57.128Z,15.75
2023-03-08T04:45:26.610Z,15.25
2023-03-08T04:47:56.050Z,14.82
2023-03-08T04:50:25.628Z,14.90
2023-03-08T04:52:55.100Z,14.10
2023-03-08T04:55:24.618Z,14.15
2023-03-08T04:57:54.094Z,15.60
2023-03-08T05:00:26.504Z,15.95
2023-03-08T05:02:56.008Z,15.68
2023-03-08T05:05:25.643Z,13.93
2023-03-08T05:07:55.107Z,14.00
2023-03-08T05:10:24.630Z,15.23
2023-03-08T05:12:54.184Z,15.80
2023-03-08T05:15:26.366Z,14.82
2023-03-08T05:17:55.840Z,18.45
2023-03-08T05:20:25.332Z,16.15
2023-03-08T05:22:58.912Z,20.42
2023-03-08T05:25:30.937Z,20.88
2023-03-08T05:28:00.559Z,19.63
2023-03-08T05:30:32.747Z,22.52
2023-03-08T05:33:02.253Z,20.75
2023-03-08T05:35:31.722Z,20.88
2023-03-08T05:38:01.222Z,20.95
2023-03-08T05:40:30.804Z,21.63
2023-03-08T05:43:00.318Z,21.10
2023-03-08T05:45:32.571Z,21.83
2023-03-08T05:48:02.105Z,22.02
2023-03-08T05:50:31.580Z,22.25
2023-03-08T05:53:01.043Z,20.52
2023-03-08T05:55:30.494Z,20.77
2023-03-08T05:57:59.969Z,20.83
2023-03-08T06:00:32.100Z,23.27
2023-03-08T06:03:04.037Z,20.45
2023-03-08T06:05:33.643Z,20.40
2023-03-08T06:08:03.226Z,22.77
2023-03-08T06:10:32.793Z,20.17
2023-03-08T06:13:03.495Z,21.17
2023-03-08T06:15:35.746Z,20.92
2023-03-08T06:18:05.566Z,22.58
2023-03-08T06:20:35.682Z,22.23
2023-03-08T06:23:05.148Z,21.23
2023-03-08T06:25:34.676Z,21.65
2023-03-08T06:28:04.169Z,20.48
2023-03-08T06:30:36.226Z,20.52
2023-03-08T06:33:05.744Z,20.92
2023-03-08T06:35:35.367Z,22.10
2023-03-08T06:38:04.910Z,19.42
2023-03-08T06:40:34.420Z,21.75
2023-03-08T06:43:03.871Z,22.02
2023-03-08T06:45:36.530Z,20.70
2023-03-08T06:48:06.054Z,23.50
2023-03-08T06:50:35.580Z,22.05
2023-03-08T06:53:05.077Z,23.27
2023-03-08T06:55:34.640Z,23.55
2023-03-08T06:58:04.134Z,23.05
2023-03-08T07:00:36.474Z,21.73
2023-03-08T07:03:06.068Z,20.88
2023-03-08T07:05:35.629Z,22.65
2023-03-08T07:08:05.095Z,22.00
2023-03-08T07:10:34.641Z,23.98
2023-03-08T07:13:04.079Z,24.35
2023-03-08T07:15:36.151Z,21.25
2023-03-08T07:18:05.716Z,21.85
2023-03-08T07:20:35.300Z,21.88
2023-03-08T07:23:04.766Z,24.08
2023-03-08T07:25:34.547Z,22.42
2023-03-08T07:28:04.067Z,23.67
2023-03-08T07:30:36.096Z,23.58
2023-03-08T07:33:05.634Z,25.60
2023-03-08T07:35:35.293Z,24.60
2023-03-08T07:38:04.817Z,27.42
2023-03-08T07:40:34.312Z,26.50
2023-03-08T07:43:03.992Z,27.40
2023-03-08T07:45:36.045Z,26.10
2023-03-08T07:48:05.637Z,26.95
2023-03-08T07:50:35.215Z,28.58
2023-03-08T07:53:04.847Z,28.92
2023-03-08T07:55:34.460Z,30.23
2023-03-08T07:58:03.966Z,30.25
2023-03-08T08:00:36.187Z,31.17
2023-03-08T08:03:05.804Z,30.95
2023-03-08T08:05:35.434Z,32.63
2023-03-08T08:08:05.029Z,33.22
2023-03-08T08:10:34.604Z,34.38
2023-03-08T08:13:04.143Z,34.97
2023-03-08T08:15:36.225Z,33.22
2023-03-08T08:18:05.838Z,34.80
2023-03-08T08:20:35.453Z,34.60
2023-03-08T08:23:04.956Z,36.20
2023-03-08T08:25:34.437Z,34.80
2023-03-08T08:28:03.923Z,36.70
2023-03-08T08:30:36.022Z,38.78
2023-03-08T08:33:06.288Z,39.83
2023-03-08T08:35:43.130Z,35.25
2023-03-08T08:38:13.097Z,35.30
2023-03-08T08:40:42.588Z,39.88
2023-03-08T08:43:12.048Z,41.92
2023-03-08T08:45:48.130Z,40.88
2023-03-08T08:48:17.753Z,42.03
2023-03-08T08:50:47.207Z,41.67
2023-03-08T08:53:16.788Z,38.78
2023-03-08T08:55:46.441Z,39.30
2023-03-08T08:58:16.160Z,43.25
2023-03-08T09:00:48.219Z,46.08
2023-03-08T09:03:17.838Z,42.85
2023-03-08T09:05:47.629Z,41.72
2023-03-08T09:08:17.100Z,43.88
2023-03-08T09:10:46.722Z,45.28
2023-03-08T09:13:16.244Z,44.45
2023-03-08T09:15:48.329Z,43.28
2023-03-08T09:18:17.964Z,42.60
2023-03-08T09:20:47.447Z,45.28
2023-03-08T09:23:16.956Z,40.88
2023-03-08T09:25:46.596Z,43.38
2023-03-08T09:28:16.216Z,41.67
2023-03-08T09:30:48.376Z,42.15
2023-03-08T09:33:17.931Z,39.28
2023-03-08T09:35:47.688Z,44.40
2023-03-08T09:38:17.262Z,41.33
2023-03-08T09:40:49.214Z,44.00
2023-03-08T09:43:23.501Z,47.38
2023-03-08T09:45:58.048Z,49.20
2023-03-08T09:48:29.708Z,43.92
2023-03-08T09:50:59.957Z,46.72
2023-03-08T09:53:31.212Z,46.92
2023-03-08T09:56:04.011Z,47.83
2023-03-08T09:58:38.628Z,53.08
2023-03-08T10:01:22.799Z,53.70
2023-03-08T10:04:15.972Z,51.03
2023-03-08T10:06:48.637Z,47.78
2023-03-08T10:09:31.030Z,50.92
2023-03-08T10:12:05.702Z,51.08
2023-03-08T10:14:39.312Z,52.40
2023-03-08T10:19:43.287Z,51.58
2023-03-08T10:22:21.085Z,49.92
2023-03-08T10:24:53.320Z,51.90
2023-03-08T10:27:24.160Z,52.33
2023-03-08T10:29:54.709Z,51.95
2023-03-08T10:32:27.112Z,50.25
2023-03-08T10:35:02.762Z,46.80
2023-03-08T10:37:33.435Z,45.00
2023-03-08T10:40:06.011Z,44.67
2023-03-08T10:42:35.489Z,46.65
2023-03-08T10:45:06.586Z,45.47
2023-03-08T10:50:18.087Z,40.90
2023-03-08T10:52:48.278Z,43.85
2023-03-08T10:55:20.227Z,44.67
2023-03-08T10:57:52.567Z,42.67
2023-03-08T11:00:35.623Z,45.58
2023-03-08T11:03:16.261Z,41.10
2023-03-08T11:05:54.654Z,39.88
2023-03-08T11:08:24.976Z,46.28
2023-03-08T11:11:08.628Z,48.63
2023-03-08T11:13:39.604Z,45.70
2023-03-08T11:16:24.621Z,45.47
2023-03-08T11:19:01.223Z,49.30
2023-03-08T11:21:35.818Z,41.67
2023-03-08T11:24:18.418Z,40.13
2023-03-08T11:26:53.058Z,41.08
2023-03-08T11:29:29.221Z,40.65
2023-03-08T11:32:01.676Z,39.60
2023-03-08T11:34:48.558Z,40.28
2023-03-08T11:37:21.624Z,39.42
2023-03-08T11:39:53.513Z,44.03
2023-03-08T11:42:27.713Z,38.97
2023-03-08T11:45:07.903Z,36.42
2023-03-08T11:48:00.725Z,38.10
2023-03-08T11:50:34.387Z,39.15
2023-03-08T11:53:12.659Z,36.45
2023-03-08T11:56:00.144Z,37.08
2023-03-08T11:58:32.296Z,35.38
2023-03-08T12:01:03.785Z,35.47
2023-03-08T12:03:35.724Z,34.78
2023-03-08T12:06:22.759Z,38.10
2023-03-08T12:08:59.194Z,34.20
2023-03-08T12:14:01.675Z,36.27
2023-03-08T12:16:34.537Z,29.23
2023-03-08T12:19:06.962Z,28.30
2023-03-08T12:21:41.514Z,29.77
2023-03-08T12:24:23.307Z,31.65
2023-03-08T12:26:55.139Z,29.30
2023-03-08T12:29:26.736Z,31.70
2023-03-08T12:31:56.443Z,28.40
2023-03-08T12:34:30.008Z,26.23
2023-03-08T12:37:02.045Z,22.85
2023-03-08T12:39:32.350Z,24.40
2023-03-08T12:42:16.045Z,27.63
2023-03-08T12:44:45.566Z,25.70
2023-03-08T12:47:22.874Z,25.27
2023-03-08T12:49:53.597Z,27.02
2023-03-08T12:52:30.821Z,25.42
2023-03-08T12:55:02.025Z,24.02
2023-03-08T12:57:32.746Z,27.52
2023-03-08T13:00:05.447Z,27.20
2023-03-08T13:02:35.892Z,26.98
2023-03-08T13:05:07.197Z,23.48
2023-03-08T13:07:40.297Z,25.75
2023-03-08T13:10:11.452Z,24.95
2023-03-08T13:15:25.058Z,25.35
2023-03-08T13:17:56.636Z,25.20
2023-03-08T13:20:28.317Z,26.25
2023-03-08T13:23:04.691Z,28.85
2023-03-08T13:25:51.642Z,26.58
2023-03-08T13:28:21.972Z,25.90
2023-03-08T13:30:53.818Z,23.45
2023-03-08T13:33:25.486Z,28.25
2023-03-08T13:36:01.640Z,27.48
2023-03-08T13:38:35.104Z,24.08
2023-03-08T13:41:04.809Z,26.10
2023-03-08T13:43:35.445Z,22.90
2023-03-08T13:46:06.453Z,25.48
2023-03-08T13:48:37.522Z,24.40
2023-03-08T13:53:40.413Z,23.83
2023-03-08T13:56:10.755Z,24.35
2023-03-08T13:58:41.356Z,24.52
2023-03-08T14:01:13.759Z,24.35
2023-03-08T14:03:43.787Z,25.50
2023-03-08T14:06:24.193Z,24.67
2023-03-08T14:08:59.430Z,23.80
2023-03-08T14:11:30.680Z,24.60
2023-03-08T14:14:00.729Z,24.58
2023-03-08T14:16:32.981Z,21.40
2023-03-08T14:19:04.035Z,23.42
2023-03-08T14:24:06.992Z,25.88
2023-03-08T14:26:37.530Z,24.83
2023-03-08T14:29:21.569Z,26.13
2023-03-08T14:31:59.208Z,24.10
2023-03-08T14:34:29.654Z,28.02
2023-03-08T14:37:00.295Z,23.80
2023-03-08T14:39:33.238Z,26.33
2023-03-08T14:42:11.416Z,26.33
2023-03-08T14:44:40.957Z,25.67
2023-03-08T14:47:11.691Z,28.05
2023-03-08T14:49:44.037Z,27.30
2023-03-08T14:52:22.409Z,28.70
2023-03-08T14:54:54.547Z,27.90
2023-03-08T14:57:25.184Z,24.50
2023-03-08T14:59:54.676Z,29.00
2023-03-08T15:02:24.120Z,26.73
2023-03-08T15:04:53.606Z,27.35
2023-03-08T15:07:24.258Z,25.40
2023-03-08T15:09:58.292Z,28.70
2023-03-08T15:12:33.733Z,27.05
2023-03-08T15:15:03.215Z,28.25
2023-03-08T15:17:32.707Z,26.95
2023-03-08T15:20:02.162Z,26.13
2023-03-08T15:22:31.581Z,28.35
2023-03-08T15:25:05.494Z,29.00
2023-03-08T15:27:34.906Z,24.63
2023-03-08T15:30:04.524Z,21.98
2023-03-08T15:32:34.225Z,22.17
2023-03-08T15:35:03.801Z,22.20
2023-03-08T15:37:33.423Z,21.92
2023-03-08T15:40:08.151Z,21.77
2023-03-08T15:42:38.084Z,26.83
2023-03-08T15:45:08.489Z,24.25
2023-03-08T15:47:38.255Z,26.52
2023-03-08T15:50:08.627Z,23.85
2023-03-08T15:52:38.232Z,25.60
2023-03-08T15:55:12.770Z,26.00
2023-03-08T15:57:42.512Z,28.45
2023-03-08T16:00:14.258Z,26.08
2023-03-08T16:02:43.808Z,29.08
2023-03-08T16:05:14.742Z,30.55
2023-03-08T16:07:44.272Z,28.83
2023-03-08T16:10:16.934Z,31.65
2023-03-08T16:12:46.439Z,34.60
2023-03-08T16:15:15.926Z,32.78
2023-03-08T16:17:45.478Z,31.38
2023-03-08T16:20:15.855Z,34.35
2023-03-08T16:22:45.327Z,30.13
2023-03-08T16:25:17.524Z,35.10
2023-03-08T16:27:47.021Z,35.50
2023-03-08T16:30:16.992Z,38.15
2023-03-08T16:32:46.490Z,34.08
2023-03-08T16:35:16.129Z,36.13
2023-03-08T16:37:45.646Z,32.33
2023-03-08T16:40:18.931Z,28.23
2023-03-08T16:42:48.416Z,30.08
2023-03-08T16:45:17.901Z,25.95
2023-03-08T16:47:47.336Z,24.50
2023-03-08T16:50:16.820Z,24.65
2023-03-08T16:52:46.318Z,25.30
2023-03-08T16:55:18.604Z,28.67
2023-03-08T16:57:48.106Z,31.70
2023-03-08T17:00:18.555Z,32.90
2023-03-08T17:02:48.118Z,35.60
2023-03-08T17:05:17.744Z,36.67
2023-03-08T17:07:49.037Z,40.15
2023-03-08T17:10:21.123Z,40.95
2023-03-08T17:12:50.783Z,39.38
2023-03-08T17:15:20.513Z,39.65
2023-03-08T17:17:50.013Z,42.65
2023-03-08T17:20:19.849Z,46.08
2023-03-08T17:22:49.391Z,51.35
2023-03-08T17:25:21.522Z,47.53
2023-03-08T17:27:51.131Z,58.28
2023-03-08T17:30:21.415Z,59.10
2023-03-08T17:32:50.907Z,50.92
2023-03-08T17:35:20.486Z,44.58
2023-03-08T17:37:51.547Z,51.22
2023-03-08T17:40:24.108Z,48.72
2023-03-08T17:42:53.688Z,57.22
2023-03-08T17:45:23.252Z,50.90
2023-03-08T17:47:52.883Z,54.90
2023-03-08T17:50:22.555Z,53.80
2023-03-08T17:52:51.999Z,44.25
2023-03-08T17:55:24.118Z,48.17
2023-03-08T17:57:53.965Z,57.55
2023-03-08T18:00:24.721Z,56.25
2023-03-08T18:02:54.206Z,60.97
2023-03-08T18:05:23.674Z,65.47
2023-03-08T18:07:53.173Z,63.30
2023-03-08T18:10:25.541Z,64.70
2023-03-08T18:12:55.101Z,60.22
2023-03-08T18:15:24.566Z,78.60
2023-03-08T18:17:54.175Z,81.25
2023-03-08T18:20:25.863Z,62.83
2023-03-08T18:22:55.494Z,68.88
2023-03-08T18:25:27.565Z,53.47
2023-03-08T18:27:57.008Z,56.00
2023-03-08T18:30:26.578Z,65.20
2023-03-08T18:32:56.000Z,66.10
2023-03-08T18:35:25.451Z,71.93
2023-03-08T18:37:54.921Z,70.75
2023-03-08T18:40:28.707Z,71.18
2023-03-08T18:42:58.400Z,85.60
2023-03-08T18:45:27.834Z,72.10
2023-03-08T18:47:57.350Z,86.85
2023-03-08T18:50:27.738Z,92.88
2023-03-08T18:52:57.398Z,49.92
2023-03-08T18:55:29.439Z,47.88
2023-03-08T18:57:58.897Z,58.25
2023-03-08T19:00:28.660Z,46.97
2023-03-08T19:02:58.163Z,66.05
2023-03-08T19:05:27.687Z,59.90
2023-03-08T19:07:57.383Z,64.72
2023-03-08T19:10:29.917Z,56.40
2023-03-08T19:13:00.244Z,57.78
2023-03-08T19:15:29.914Z,46.03
2023-03-08T19:17:59.641Z,52.03
2023-03-08T19:20:30.261Z,59.55
2023-03-08T19:22:59.677Z,51.88
2023-03-08T19:25:32.869Z,42.70
2023-03-08T19:28:03.452Z,38.05
2023-03-08T19:30:32.909Z,44.28
2023-03-08T19:33:02.444Z,39.45
2023-03-08T19:35:31.928Z,45.75
2023-03-08T19:38:01.604Z,58.63
2023-03-08T19:40:34.350Z,59.17
2023-03-08T19:43:03.826Z,62.08
2023-03-08T19:45:33.364Z,46.92
2023-03-08T19:48:02.874Z,48.35
2023-03-08T19:50:32.502Z,52.03
2023-03-08T19:53:02.084Z,61.38
2023-03-08T19:55:34.356Z,60.80
2023-03-08T19:58:03.925Z,65.82
2023-03-08T20:00:33.413Z,73.50
2023-03-08T20:03:02.955Z,78.60
2023-03-08T20:05:35.219Z,78.85
2023-03-08T20:08:04.921Z,76.97
2023-03-08T20:10:37.165Z,64.43
2023-03-08T20:13:06.895Z,93.25
2023-03-08T20:15:36.488Z,61.80
2023-03-08T20:18:06.169Z,60.88
2023-03-08T20:20:35.673Z,74.10
2023-03-08T20:23:05.297Z,60.00
2023-03-08T20:25:37.431Z,54.00
2023-03-08T20:28:07.462Z,55.60
2023-03-08T20:30:36.944Z,47.67
2023-03-08T20:33:06.685Z,87.72
2023-03-08T20:35:36.175Z,66.88
2023-03-08T20:38:05.618Z,54.63
2023-03-08T20:40:39.696Z,47.17
2023-03-08T20:43:11.008Z,71.30
2023-03-08T20:45:41.124Z,55.70
2023-03-08T20:48:10.640Z,60.28
2023-03-08T20:50:40.111Z,82.68
2023-03-08T20:53:09.625Z,67.38
2023-03-08T20:55:43.188Z,50.70
2023-03-08T20:58:12.669Z,46.17
2023-03-08T21:00:42.148Z,49.88
2023-03-08T21:03:11.583Z,54.55
2023-03-08T21:05:41.423Z,36.03
2023-03-08T21:08:11.149Z,68.88
2023-03-08T21:10:43.489Z,52.72
2023-03-08T21:13:13.864Z,49.00
2023-03-08T21:15:43.455Z,44.38
2023-03-08T21:18:13.017Z,45.90
2023-03-08T21:20:42.591Z,37.95
2023-03-08T21:23:12.070Z,44.55
2023-03-08T21:25:43.913Z,41.50
2023-03-08T21:28:13.388Z,48.25
2023-03-08T21:30:43.179Z,45.75
2023-03-08T21:33:12.687Z,36.45
2023-03-08T21:35:42.276Z,40.30
2023-03-08T21:38:12.002Z,51.67
2023-03-08T21:40:45.115Z,47.10
2023-03-08T21:43:14.561Z,29.48
2023-03-08T21:45:44.384Z,27.85
2023-03-08T21:48:13.947Z,28.10
2023-03-08T21:50:43.467Z,26.58
2023-03-08T21:53:12.913Z,24.95
2023-03-08T21:55:44.996Z,26.63
2023-03-08T21:58:14.543Z,32.22
2023-03-08T22:00:44.182Z,29.27
2023-03-08T22:03:13.721Z,44.83
2023-03-08T22:05:43.297Z,50.05
2023-03-08T22:08:12.810Z,59.08
2023-03-08T22:10:44.985Z,52.53
2023-03-08T22:13:14.707Z,50.42
2023-03-08T22:15:44.180Z,71.38
2023-03-08T22:18:13.735Z,60.10
2023-03-08T22:20:43.216Z,57.25
2023-03-08T22:23:12.714Z,82.28
2023-03-08T22:25:44.783Z,76.38
2023-03-08T22:28:14.291Z,108.47
2023-03-08T22:30:43.757Z,93.05
2023-03-08T22:33:13.286Z,81.28
2023-03-08T22:35:42.873Z,60.83
2023-03-08T22:38:12.498Z,76.72
2023-03-08T22:40:45.581Z,86.28
2023-03-08T22:43:15.113Z,86.55
2023-03-08T22:45:44.963Z,61.95
2023-03-08T22:48:14.534Z,88.60
2023-03-08T22:50:44.041Z,201.68
2023-03-08T22:53:13.585Z,150.23
2023-03-08T22:55:51.376Z,197.65
2023-03-08T22:58:20.857Z,137.18
2023-03-08T23:00:50.915Z,138.07
2023-03-08T23:03:20.917Z,102.50
2023-03-08T23:05:50.506Z,105.15
2023-03-08T23:08:19.946Z,90.95
2023-03-08T23:10:52.023Z,90.88
2023-03-08T23:13:32.933Z,84.55
2023-03-08T23:18:32.095Z,78.47
2023-03-08T23:21:04.951Z,81.43
2023-03-08T23:23:34.648Z,109.40
2023-03-08T23:26:08.415Z,99.60
2023-03-08T23:28:38.224Z,90.57
2023-03-08T23:31:11.224Z,115.32
2023-03-08T23:33:40.720Z,99.35
2023-03-08T23:36:11.249Z,145.27
2023-03-08T23:38:40.825Z,133.45
2023-03-08T23:41:13.841Z,130.57
2023-03-08T23:43:43.332Z,103.30
2023-03-08T23:46:14.490Z,121.68
2023-03-08T23:48:43.922Z,83.70
2023-03-08T23:51:14.569Z,93.15
2023-03-08T23:53:44.089Z,119.40
2023-03-08T23:56:26.436Z,93.50
2023-03-08T23:58:57.032Z,102.82
